Time;durP1;ratioP1;P1;durP2;ratioP2;P2;SDS_P1;SDS_P2;PMS_P1;PMS_P2;Temp;Humidity;BMP_temperature;BMP_pressure;BME280_temperature;BME280_humidity;BME280_pressure;Samples;Min_cycle;Max_cycle;Signal;HPM_P1;HPM_P2
2024/02/23 00:01:26;;;;;;;15.32;11.15;;;;;;;7.77;100.00;100487.53;4958513;28;20130;-69
2024/02/23 00:03:51;;;;;;;18.02;12.65;;;;;;;7.79;100.00;100491.06;4960318;28;20051;-69
2024/02/23 00:06:17;;;;;;;15.88;12.23;;;;;;;7.80;100.00;100487.72;4959029;28;20047;-70
2024/02/23 00:08:43;;;;;;;17.95;11.40;;;;;;;7.74;100.00;100478.00;4975376;28;20046;-68
2024/02/23 00:11:08;;;;;;;17.23;12.77;;;;;;;7.64;100.00;100477.47;4992233;28;20034;-68
2024/02/23 00:13:34;;;;;;;15.65;12.15;;;;;;;7.55;100.00;100491.63;4992788;28;20027;-69
2024/02/23 00:15:59;;;;;;;18.42;11.82;;;;;;;7.49;100.00;100486.19;4991565;28;21081;-72
2024/02/23 00:18:25;;;;;;;16.38;12.00;;;;;;;7.42;100.00;100477.28;4992277;28;20089;-67
2024/02/23 00:20:50;;;;;;;17.42;13.05;;;;;;;7.44;100.00;100479.97;4992202;28;20121;-67
2024/02/23 00:23:16;;;;;;;17.20;12.48;;;;;;;7.44;100.00;100483.41;4992265;28;20034;-68
2024/02/23 00:25:41;;;;;;;15.80;12.63;;;;;;;7.40;100.00;100475.44;4992220;28;20057;-68
2024/02/23 00:28:08;;;;;;;19.08;13.57;;;;;;;7.30;100.00;100453.56;4992069;28;20030;-68
2024/02/23 00:30:33;;;;;;;18.38;12.07;;;;;;;7.47;100.00;100474.97;4992852;28;20056;-68
2024/02/23 00:32:59;;;;;;;21.48;13.10;;;;;;;7.47;100.00;100468.94;4992249;28;20525;-68
2024/02/23 00:35:24;;;;;;;21.23;12.85;;;;;;;7.45;100.00;100463.72;4992348;28;20046;-68
2024/02/23 00:37:50;;;;;;;16.15;12.70;;;;;;;7.37;100.00;100465.03;4987206;28;20129;-68
2024/02/23 00:40:15;;;;;;;16.67;12.45;;;;;;;7.43;100.00;100462.78;4992047;28;20044;-68
2024/02/23 00:42:41;;;;;;;16.40;12.50;;;;;;;7.45;100.00;100480.03;4992947;28;20113;-68
2024/02/23 00:45:07;;;;;;;18.55;12.80;;;;;;;7.07;100.00;100401.09;4991636;28;20410;-69
2024/02/23 00:47:33;;;;;;;17.35;13.15;;;;;;;7.36;100.00;100465.84;4991415;28;20113;-69
2024/02/23 00:49:58;;;;;;;18.70;13.93;;;;;;;7.35;100.00;100466.63;4987109;28;20409;-70
2024/02/23 00:52:24;;;;;;;21.98;13.60;;;;;;;7.31;100.00;100465.59;4992045;28;20035;-70
2024/02/23 00:54:50;;;;;;;20.25;14.25;;;;;;;7.16;100.00;100459.72;4991586;28;20026;-68
2024/02/23 00:57:16;;;;;;;19.90;13.43;;;;;;;6.64;100.00;100382.72;4991803;28;20614;-70
2024/02/23 00:59:42;;;;;;;18.38;13.23;;;;;;;7.08;100.00;100459.31;4992029;28;20026;-69
2024/02/23 01:02:07;;;;;;;20.23;14.50;;;;;;;7.06;100.00;100453.22;4991190;28;20085;-67
2024/02/23 01:04:33;;;;;;;20.13;13.63;;;;;;;7.00;100.00;100450.34;4991292;28;20049;-69
2024/02/23 01:06:58;;;;;;;17.75;13.57;;;;;;;6.49;100.00;100363.94;4990547;28;20557;-68
2024/02/23 01:09:24;;;;;;;20.90;13.77;;;;;;;6.58;100.00;100381.50;4991646;28;20026;-68
2024/02/23 01:11:49;;;;;;;19.80;14.30;;;;;;;6.49;100.00;100366.50;4991393;28;20062;-67
2024/02/23 01:14:15;;;;;;;21.00;13.93;;;;;;;6.92;100.00;100448.25;4990683;28;20030;-69
2024/02/23 01:16:41;;;;;;;20.13;15.30;;;;;;;6.91;100.00;100459.31;4988561;28;20129;-69
2024/02/23 01:19:06;;;;;;;21.48;14.98;;;;;;;6.83;100.00;100441.78;4991040;28;20093;-66
2024/02/23 01:21:31;;;;;;;19.63;14.10;;;;;;;6.86;100.00;100444.50;4983923;28;20482;-73
2024/02/23 01:23:57;;;;;;;21.52;14.90;;;;;;;6.39;100.00;100369.41;4990962;28;20030;-68
2024/02/23 01:26:23;;;;;;;24.58;13.77;;;;;;;6.37;100.00;100355.63;4991236;28;20722;-69
2024/02/23 01:28:49;;;;;;;20.40;14.65;;;;;;;6.88;100.00;100438.66;4990807;28;20035;-66
2024/02/23 01:31:14;;;;;;;19.42;14.40;;;;;;;6.92;100.00;100435.44;4990698;28;20034;-68
2024/02/23 01:33:40;;;;;;;19.02;14.40;;;;;;;6.31;100.00;100341.69;4990954;28;20041;-74
2024/02/23 01:36:06;;;;;;;22.02;15.60;;;;;;;6.77;100.00;100419.25;4991162;28;20045;-70
2024/02/23 01:38:32;;;;;;;18.55;13.48;;;;;;;6.59;100.00;100411.47;4991677;28;20065;-69
2024/02/23 01:41:01;;;;;;;21.42;14.98;;;;;;;6.61;100.00;100413.31;4990747;28;20490;-68
2024/02/23 01:43:27;;;;;;;22.05;15.15;;;;;;;6.63;100.00;100421.97;4991369;28;20026;-69
2024/02/23 01:45:53;;;;;;;19.80;14.85;;;;;;;6.69;100.00;100421.44;4961560;28;20544;-68
2024/02/23 01:48:19;;;;;;;26.65;19.73;;;;;;;6.71;100.00;100418.94;4990626;28;20026;-68
2024/02/23 01:50:44;;;;;;;22.73;15.90;;;;;;;6.44;100.00;100403.88;4990634;28;20081;-68
2024/02/23 01:53:12;;;;;;;24.65;16.80;;;;;;;5.93;100.00;100329.38;4985910;28;20462;-68
2024/02/23 01:55:41;;;;;;;22.75;15.45;;;;;;;6.23;100.00;100395.91;4990374;28;20042;-69
2024/02/23 01:58:07;;;;;;;22.83;16.08;;;;;;;6.20;100.00;100412.03;4990443;28;20145;-71
2024/02/23 02:00:35;;;;;;;21.88;16.08;;;;;;;6.18;100.00;100413.66;4990678;28;20038;-67
2024/02/23 02:03:00;;;;;;;22.15;15.13;;;;;;;6.15;100.00;100409.19;4991057;28;20038;-70
2024/02/23 02:05:26;;;;;;;24.38;14.43;;;;;;;6.18;100.00;100408.50;4990268;28;20121;-68
2024/02/23 02:07:58;;;;;;;20.95;14.68;;;;;;;5.87;100.00;100363.25;4990314;28;20034;-69
2024/02/23 02:10:24;;;;;;;20.35;14.32;;;;;;;5.26;100.00;100259.25;4989947;28;20030;-68
2024/02/23 02:12:50;;;;;;;22.25;13.75;;;;;;;5.75;100.00;100347.22;4990597;28;20037;-69
2024/02/23 02:15:15;;;;;;;21.40;13.95;;;;;;;6.11;100.00;100409.84;4989803;28;20038;-68
2024/02/23 02:17:41;;;;;;;21.67;13.80;;;;;;;5.58;100.00;100330.94;4990255;28;20510;-69
2024/02/23 02:20:11;;;;;;;20.50;13.98;;;;;;;5.87;100.00;100411.03;4990200;28;20599;-68
2024/02/23 02:22:37;;;;;;;19.33;12.95;;;;;;;5.13;100.00;100334.44;4990410;28;20084;-68
2024/02/23 02:25:03;;;;;;;22.33;14.20;;;;;;;5.60;100.00;100416.41;4990887;28;20030;-68
2024/02/23 02:27:28;;;;;;;21.67;13.73;;;;;;;5.14;100.00;100328.53;4989776;28;20042;-69
2024/02/23 02:29:54;;;;;;;20.10;13.48;;;;;;;5.59;100.00;100410.38;4989929;28;20092;-69
2024/02/23 02:32:19;;;;;;;22.63;13.80;;;;;;;5.48;100.00;100412.38;4990284;28;20026;-73
2024/02/23 02:34:45;;;;;;;22.13;14.02;;;;;;;5.25;100.00;100402.50;4990606;28;20034;-67
2024/02/23 02:37:10;;;;;;;26.13;13.07;;;;;;;4.81;100.00;100343.75;4990203;28;20038;-69
2024/02/23 02:39:36;;;;;;;22.98;14.18;;;;;;;5.10;100.00;100418.72;4990743;28;20505;-68
2024/02/23 02:42:01;;;;;;;18.73;12.77;;;;;;;5.09;100.00;100413.53;4989658;28;20057;-72
2024/02/23 02:44:30;;;;;;;22.05;13.82;;;;;;;4.90;100.00;100407.34;4989630;28;20030;-71
2024/02/23 02:46:56;;;;;;;21.00;13.30;;;;;;;4.89;100.00;100417.47;4990708;28;20034;-67
2024/02/23 02:49:22;;;;;;;21.85;13.57;;;;;;;4.64;100.00;100414.34;4989987;28;20038;-66
2024/02/23 02:51:47;;;;;;;18.83;13.15;;;;;;;4.63;100.00;100415.13;4990544;28;20034;-67
2024/02/23 02:54:13;;;;;;;20.02;13.20;;;;;;;4.62;100.00;100415.94;4989935;28;20405;-66
2024/02/23 02:56:43;;;;;;;20.83;13.25;;;;;;;4.21;100.00;100350.41;4989864;28;20045;-68
2024/02/23 02:59:10;;;;;;;21.45;14.05;;;;;;;4.46;100.00;100375.78;4990245;28;20038;-67
2024/02/23 03:01:35;;;;;;;22.20;15.05;;;;;;;4.63;100.00;100409.13;4989696;28;20033;-68
2024/02/23 03:04:01;;;;;;;29.60;16.52;;;;;;;4.16;100.00;100331.34;4990048;28;20046;-67
2024/02/23 03:06:27;;;;;;;22.70;14.82;;;;;;;4.17;100.00;100340.78;4990112;28;20440;-65
2024/02/23 03:08:52;;;;;;;22.27;15.43;;;;;;;4.49;100.00;100405.75;4990171;28;20557;-67
2024/02/23 03:11:18;;;;;;;27.52;15.02;;;;;;;4.23;100.00;100384.59;4989468;28;20034;-66
2024/02/23 03:13:43;;;;;;;25.52;15.18;;;;;;;3.80;100.00;100329.22;4990460;28;20088;-68
2024/02/23 03:16:16;;;;;;;24.38;15.88;;;;;;;3.83;100.00;100331.94;4989649;28;20417;-66
2024/02/23 03:18:42;;;;;;;28.65;15.50;;;;;;;3.79;100.00;100331.66;4989718;28;20421;-68
2024/02/23 03:21:09;;;;;;;28.15;15.63;;;;;;;4.12;100.00;100423.94;4990410;28;20030;-71
2024/02/23 03:23:36;;;;;;;23.58;15.68;;;;;;;4.09;100.00;100418.63;4988425;28;20504;-69
2024/02/23 03:26:02;;;;;;;23.27;16.33;;;;;;;3.51;100.00;100320.63;4988273;28;20097;-67
2024/02/23 03:28:28;;;;;;;23.67;15.65;;;;;;;3.89;100.00;100413.19;4989853;28;20037;-68
2024/02/23 03:30:53;;;;;;;23.88;15.45;;;;;;;3.83;100.00;100416.22;4992156;28;20070;-67
2024/02/23 03:33:19;;;;;;;24.48;15.48;;;;;;;3.80;100.00;100417.69;4984384;28;20130;-67
2024/02/23 03:35:44;;;;;;;27.38;16.20;;;;;;;3.77;100.00;100404.75;4993107;28;20506;-68
2024/02/23 03:38:10;;;;;;;23.63;15.43;;;;;;;3.79;100.00;100414.28;4993079;28;20026;-66
2024/02/23 03:40:35;;;;;;;22.77;15.40;;;;;;;3.78;100.00;100419.28;4992541;28;20453;-69
2024/02/23 03:43:02;;;;;;;24.80;15.43;;;;;;;3.19;100.00;100328.78;4993659;28;20049;-73
2024/02/23 03:45:28;;;;;;;24.77;15.77;;;;;;;3.72;100.00;100424.88;4992890;28;20030;-67
2024/02/23 03:47:53;;;;;;;24.63;16.27;;;;;;;3.72;100.00;100427.44;4992933;28;20085;-68
2024/02/23 03:50:19;;;;;;;23.15;14.98;;;;;;;3.63;100.00;100417.53;4991732;28;20035;-67
2024/02/23 03:52:44;;;;;;;25.48;16.08;;;;;;;3.47;100.00;100395.22;4992894;28;20089;-68
2024/02/23 03:55:10;;;;;;;23.05;14.32;;;;;;;3.46;100.00;100426.63;4981146;28;20041;-66
2024/02/23 03:57:36;;;;;;;23.23;14.65;;;;;;;3.40;100.00;100423.69;4991640;28;20458;-67
2024/02/23 04:00:02;;;;;;;25.13;15.00;;;;;;;3.36;100.00;100419.19;4979913;28;20425;-68
2024/02/23 04:02:29;;;;;;;25.00;16.20;;;;;;;3.37;100.00;100420.94;4992898;28;20446;-69
2024/02/23 04:04:54;;;;;;;23.85;15.48;;;;;;;3.40;100.00;100408.38;4992619;28;20096;-68
2024/02/23 04:07:20;;;;;;;24.40;14.77;;;;;;;3.43;100.00;100402.59;4992582;28;20510;-66
2024/02/23 04:09:51;;;;;;;26.35;15.77;;;;;;;3.60;100.00;100407.13;4992620;28;20138;-68
2024/02/23 04:12:23;;;;;;;27.65;15.30;;;;;;;3.60;100.00;100408.78;4992599;28;20061;-68
2024/02/23 04:14:48;;;;;;;25.58;15.85;;;;;;;3.67;100.00;100422.03;4992199;28;20034;-70
2024/02/23 04:17:14;;;;;;;26.88;16.58;;;;;;;3.73;100.00;100416.44;4992265;28;20050;-69
2024/02/23 04:19:43;;;;;;;27.33;14.90;;;;;;;3.64;100.00;100415.84;4992717;28;20470;-67
2024/02/23 04:22:12;;;;;;;24.27;14.90;;;;;;;3.49;100.00;100410.63;4992013;28;20064;-66
2024/02/23 04:24:41;;;;;;;24.15;15.40;;;;;;;3.41;100.00;100410.16;4992101;28;20042;-66
2024/02/23 04:27:07;;;;;;;26.55;16.20;;;;;;;3.09;100.00;100363.03;4975987;28;20419;-71
2024/02/23 04:29:33;;;;;;;24.02;14.73;;;;;;;3.35;100.00;100410.66;4983235;28;20081;-66
2024/02/23 04:32:02;;;;;;;24.67;14.70;;;;;;;3.16;100.00;100394.91;4978545;28;20147;-66
2024/02/23 04:34:28;;;;;;;26.90;16.40;;;;;;;2.81;100.00;100324.66;4979999;28;20076;-67
2024/02/23 04:36:54;;;;;;;26.73;15.10;;;;;;;3.22;100.00;100396.19;4978308;28;20047;-68
2024/02/23 04:39:20;;;;;;;27.60;15.85;;;;;;;2.67;100.00;100311.88;4979189;28;20037;-68
2024/02/23 04:41:46;;;;;;;26.70;14.10;;;;;;;3.25;100.00;100415.91;4974928;28;20487;-67
2024/02/23 04:44:11;;;;;;;26.80;16.30;;;;;;;3.10;100.00;100405.59;4983982;28;20030;-70
2024/02/23 04:46:37;;;;;;;31.25;16.58;;;;;;;3.09;100.00;100411.50;4973185;28;20046;-68
2024/02/23 04:49:02;;;;;;;24.25;14.88;;;;;;;3.04;100.00;100410.28;4974167;28;20066;-68
2024/02/23 04:51:28;;;;;;;25.75;16.05;;;;;;;3.05;100.00;100412.06;4982782;28;20042;-68
2024/02/23 04:53:53;;;;;;;28.15;16.27;;;;;;;3.04;100.00;100408.63;4960142;28;20070;-67
2024/02/23 04:56:19;;;;;;;26.60;15.27;;;;;;;2.98;100.00;100415.88;4981142;28;20041;-68
2024/02/23 04:58:45;;;;;;;27.98;15.35;;;;;;;2.95;100.00;100415.66;4991166;28;20058;-69
2024/02/23 05:01:11;;;;;;;24.05;15.75;;;;;;;2.97;100.00;100414.13;4991305;28;20470;-70
2024/02/23 05:03:37;;;;;;;24.25;14.70;;;;;;;2.92;100.00;100410.38;4991856;28;20030;-67
2024/02/23 05:06:04;;;;;;;22.27;15.05;;;;;;;2.92;100.00;100418.91;4991860;28;20548;-68
2024/02/23 05:08:30;;;;;;;27.42;15.70;;;;;;;2.83;100.00;100415.75;4991450;28;20084;-68
2024/02/23 05:10:58;;;;;;;32.10;16.08;;;;;;;2.90;100.00;100432.31;4991110;28;20035;-70
2024/02/23 05:13:24;;;;;;;24.55;15.20;;;;;;;2.95;100.00;100437.75;4988688;28;20030;-69
2024/02/23 05:15:50;;;;;;;25.35;16.05;;;;;;;2.91;100.00;100418.81;4990978;28;20358;-68
2024/02/23 05:18:15;;;;;;;24.83;15.45;;;;;;;2.89;100.00;100422.91;4990267;28;20453;-69
2024/02/23 05:20:41;;;;;;;28.90;16.92;;;;;;;2.98;100.00;100409.88;4991796;28;20509;-68
2024/02/23 05:23:06;;;;;;;25.65;16.25;;;;;;;2.71;100.00;100349.50;4991480;28;20045;-68
2024/02/23 05:25:32;;;;;;;27.77;16.48;;;;;;;3.06;100.00;100424.91;4990955;28;20077;-67
2024/02/23 05:27:57;;;;;;;27.08;15.70;;;;;;;2.41;100.00;100333.94;4991503;28;20030;-69
2024/02/23 05:30:23;;;;;;;28.10;16.00;;;;;;;2.99;100.00;100444.81;4990979;28;20076;-68
2024/02/23 05:32:48;;;;;;;24.65;14.35;;;;;;;3.02;100.00;100445.03;4991010;28;20387;-69
2024/02/23 05:35:14;;;;;;;24.15;15.65;;;;;;;2.61;100.00;100374.31;4991265;28;20034;-68
2024/02/23 05:37:41;;;;;;;29.23;17.77;;;;;;;2.98;100.00;100427.72;4991772;28;20410;-68
2024/02/23 05:40:10;;;;;;;28.98;19.60;;;;;;;2.59;100.00;100353.78;4991556;28;20057;-70
2024/02/23 05:42:39;;;;;;;28.87;17.73;;;;;;;3.20;100.00;100435.16;4990930;28;20120;-68
2024/02/23 05:45:08;;;;;;;30.08;17.88;;;;;;;3.25;100.00;100438.88;4990923;28;20692;-68
2024/02/23 05:47:37;;;;;;;29.33;16.85;;;;;;;3.19;100.00;100441.03;4990437;28;20049;-68
2024/02/23 05:50:04;;;;;;;25.95;15.82;;;;;;;3.26;100.00;100445.75;4990986;28;20034;-71
2024/02/23 05:52:31;;;;;;;24.58;15.65;;;;;;;2.67;100.00;100347.56;4990548;28;20061;-68
2024/02/23 05:54:57;;;;;;;26.52;15.20;;;;;;;3.21;100.00;100454.78;4991324;28;20030;-68
2024/02/23 05:57:22;;;;;;;28.83;15.52;;;;;;;3.04;100.00;100441.78;4957629;28;20049;-67
2024/02/23 05:59:48;;;;;;;26.50;15.77;;;;;;;2.96;100.00;100448.03;4991189;28;20026;-69
2024/02/23 06:02:13;;;;;;;27.25;16.75;;;;;;;2.81;100.00;100439.38;4986549;28;20082;-69
2024/02/23 06:04:43;;;;;;;26.48;16.48;;;;;;;2.43;100.00;100436.84;4990578;28;20061;-67
2024/02/23 06:07:08;;;;;;;28.88;17.63;;;;;;;2.68;100.00;100456.38;4990715;28;20081;-68
2024/02/23 06:09:34;;;;;;;28.23;18.23;;;;;;;2.86;100.00;100458.41;4990677;28;20022;-69
2024/02/23 06:12:00;;;;;;;27.02;17.45;;;;;;;3.00;100.00;100459.34;4991364;28;20521;-68
2024/02/23 06:14:25;;;;;;;28.55;16.02;;;;;;;2.96;100.00;100463.34;4990299;28;20068;-68
2024/02/23 06:16:51;;;;;;;26.65;16.75;;;;;;;3.05;100.00;100469.06;4990273;28;20041;-69
2024/02/23 06:19:16;;;;;;;26.17;16.23;;;;;;;2.92;100.00;100435.88;4990667;28;20035;-69
2024/02/23 06:21:42;;;;;;;25.27;15.85;;;;;;;3.01;100.00;100451.78;4990348;28;20046;-69
2024/02/23 06:24:08;;;;;;;26.13;16.13;;;;;;;3.16;100.00;100458.69;4990332;28;20080;-69
2024/02/23 06:26:34;;;;;;;29.55;16.77;;;;;;;3.34;100.00;100461.56;4990195;28;20058;-69
2024/02/23 06:29:00;;;;;;;29.25;16.98;;;;;;;3.56;100.00;100463.84;4990220;28;20525;-68
2024/02/23 06:31:26;;;;;;;28.38;16.85;;;;;;;3.74;100.00;100469.28;4989937;28;20053;-68
2024/02/23 06:33:51;;;;;;;26.17;16.05;;;;;;;3.88;100.00;100473.59;4964054;28;20133;-69
2024/02/23 06:36:18;;;;;;;28.55;17.05;;;;;;;3.46;100.00;100405.34;4990203;28;20034;-67
2024/02/23 06:38:47;;;;;;;28.17;16.88;;;;;;;3.90;100.00;100481.38;4990665;28;20030;-69
2024/02/23 06:41:13;;;;;;;28.73;16.85;;;;;;;3.76;100.00;100429.38;4990092;28;20169;-72
2024/02/23 06:43:38;;;;;;;30.23;17.63;;;;;;;4.12;100.00;100477.59;4990285;28;20541;-68
2024/02/23 06:46:08;;;;;;;27.10;17.17;;;;;;;4.09;100.00;100445.09;4989807;28;20030;-69
2024/02/23 06:48:35;;;;;;;28.42;18.27;;;;;;;4.36;100.00;100468.91;4990168;28;20026;-70
2024/02/23 06:51:02;;;;;;;28.42;16.90;;;;;;;4.60;100.00;100477.97;4989967;28;20062;-68
2024/02/23 06:53:27;;;;;;;28.08;17.02;;;;;;;4.79;100.00;100480.00;4990365;28;20031;-68
2024/02/23 06:55:53;;;;;;;32.13;19.23;;;;;;;4.82;100.00;100449.47;4990525;28;20045;-70
2024/02/23 06:58:18;;;;;;;27.20;18.65;;;;;;;5.20;100.00;100479.00;4989748;28;20434;-68
2024/02/23 07:00:44;;;;;;;28.73;16.85;;;;;;;5.41;100.00;100475.91;4989828;28;20058;-69
2024/02/23 07:03:09;;;;;;;24.25;16.38;;;;;;;5.55;100.00;100467.38;4990063;28;20046;-68
2024/02/23 07:05:35;;;;;;;27.90;18.00;;;;;;;5.34;100.00;100388.53;4992237;28;20031;-69
2024/02/23 07:08:01;;;;;;;28.55;17.33;;;;;;;6.05;100.00;100454.78;4993615;28;20026;-67
2024/02/23 07:10:27;;;;;;;27.10;18.55;;;;;;;5.97;100.00;100374.91;4985106;28;20057;-68
2024/02/23 07:12:54;;;;;;;25.83;17.90;;;;;;;6.66;100.00;100458.88;4993505;28;20031;-73
2024/02/23 07:15:20;;;;;;;26.02;18.13;;;;;;;6.90;100.00;100456.69;4993513;28;20027;-69
2024/02/23 07:17:46;;;;;;;27.05;18.17;;;;;;;6.93;100.00;100462.84;4993456;28;20058;-70
2024/02/23 07:20:12;;;;;;;27.77;19.02;;;;;;;6.58;100.00;100392.66;4943184;28;20126;-68
2024/02/23 07:22:38;;;;;;;31.42;20.50;;;;;;;7.20;100.00;100462.53;4993800;28;20117;-68
2024/02/23 07:25:05;;;;;;;31.88;21.50;;;;;;;7.45;100.00;100456.00;4994528;28;20042;-71
2024/02/23 07:27:31;;;;;;;30.13;21.67;;;;;;;7.52;100.00;100444.38;4993155;28;20583;-71
2024/02/23 07:29:57;;;;;;;30.58;20.73;;;;;;;7.63;100.00;100432.00;4986188;28;20038;-69
2024/02/23 07:32:23;;;;;;;29.02;21.58;;;;;;;7.98;100.00;100448.25;4990628;28;20057;-71
2024/02/23 07:34:49;;;;;;;27.42;17.30;;;;;;;7.64;100.00;100372.13;4993003;28;20042;-67
2024/02/23 07:37:15;;;;;;;26.58;18.17;;;;;;;8.28;100.00;100446.22;4992877;28;20045;-70
2024/02/23 07:39:40;;;;;;;29.17;21.08;;;;;;;8.33;100.00;100439.59;4993073;28;20113;-71
2024/02/23 07:42:06;;;;;;;28.13;19.15;;;;;;;8.50;100.00;100447.22;4993002;28;20026;-72
2024/02/23 07:44:32;;;;;;;28.92;19.05;;;;;;;8.66;100.00;100448.78;4992778;28;20069;-69
2024/02/23 07:46:59;;;;;;;27.42;19.27;;;;;;;8.31;100.00;100396.59;4992604;28;20023;-69
2024/02/23 07:49:24;;;;;;;24.10;17.65;;;;;;;8.75;100.00;100451.78;4991171;28;20023;-69
2024/02/23 07:51:50;;;;;;;26.02;18.10;;;;;;;8.89;100.00;100450.66;4992678;28;20125;-68
2024/02/23 07:54:16;;;;;;;24.67;18.35;;;;;;;9.04;100.00;100460.75;4992166;28;20037;-70
2024/02/23 07:56:41;;;;;;;24.83;17.90;;;;;;;9.06;100.00;100447.97;4992773;28;20026;-69
2024/02/23 07:59:07;;;;;;;28.23;19.00;;;;;;;9.18;100.00;100451.06;4992369;28;20034;-72
2024/02/23 08:01:34;;;;;;;24.55;18.38;;;;;;;9.28;100.00;100454.00;4983795;28;20493;-68
2024/02/23 08:03:59;;;;;;;26.52;18.77;;;;;;;9.34;100.00;100446.53;4992027;28;20061;-68
2024/02/23 08:06:25;;;;;;;24.42;17.10;;;;;;;9.50;100.00;100453.22;4992104;28;20065;-69
2024/02/23 08:08:53;;;;;;;25.73;17.80;;;;;;;9.67;100.00;100448.72;4992914;28;20113;-71
2024/02/23 08:11:19;;;;;;;25.50;17.63;;;;;;;9.42;100.00;100375.59;4989156;28;20571;-74
2024/02/23 08:13:45;;;;;;;24.63;17.45;;;;;;;9.87;100.00;100450.41;4992475;28;20042;-69
2024/02/23 08:16:10;;;;;;;22.17;16.23;;;;;;;10.07;100.00;100458.03;4963372;28;20061;-69
2024/02/23 08:18:36;;;;;;;24.20;17.38;;;;;;;10.16;100.00;100453.22;4991455;28;20145;-69
2024/02/23 08:21:02;;;;;;;22.30;16.45;;;;;;;10.17;100.00;100452.41;4991790;28;20030;-69
2024/02/23 08:23:29;;;;;;;23.17;17.42;;;;;;;10.24;100.00;100437.16;4992224;28;20033;-69
2024/02/23 08:25:56;;;;;;;23.67;16.80;;;;;;;10.49;100.00;100450.19;4991779;28;20089;-70
2024/02/23 08:28:23;;;;;;;23.83;16.90;;;;;;;10.59;100.00;100453.09;4992400;28;20158;-69
2024/02/23 08:30:48;;;;;;;20.20;14.82;;;;;;;10.61;100.00;100447.19;4984683;28;20165;-70
2024/02/23 08:33:14;;;;;;;21.52;16.70;;;;;;;10.75;100.00;100464.88;4993003;28;20088;-67
2024/02/23 08:35:39;;;;;;;24.75;16.17;;;;;;;10.86;100.00;100462.69;4965376;28;20084;-69
2024/02/23 08:38:05;;;;;;;23.23;16.23;;;;;;;10.84;100.00;100458.34;4991978;28;20038;-68
2024/02/23 08:40:31;;;;;;;22.58;15.55;;;;;;;10.90;100.00;100459.38;4970830;28;20604;-69
2024/02/23 08:42:56;;;;;;;21.55;15.63;;;;;;;10.78;100.00;100455.53;4992261;28;20033;-69
2024/02/23 08:45:22;;;;;;;19.65;14.90;;;;;;;10.87;100.00;100446.38;4991873;28;20070;-70
2024/02/23 08:47:47;;;;;;;20.92;15.48;;;;;;;10.99;100.00;100452.84;4992469;28;20157;-70
2024/02/23 08:50:14;;;;;;;22.00;15.35;;;;;;;11.04;100.00;100447.84;4992252;28;20572;-67
2024/02/23 08:52:43;;;;;;;22.10;16.50;;;;;;;11.09;100.00;100445.38;4967813;28;20097;-71
2024/02/23 08:55:09;;;;;;;23.00;16.42;;;;;;;11.11;100.00;100449.78;4990633;28;20046;-72
2024/02/23 08:57:34;;;;;;;19.10;14.70;;;;;;;10.67;100.00;100384.56;4991453;28;20049;-71
2024/02/23 09:00:00;;;;;;;21.13;15.23;;;;;;;10.78;100.00;100378.06;4991031;28;20791;-69
2024/02/23 09:02:25;;;;;;;20.65;14.27;;;;;;;11.37;100.00;100447.22;4991290;28;20053;-70
2024/02/23 09:04:51;;;;;;;20.80;14.75;;;;;;;11.55;100.00;100444.38;4980842;28;20034;-70
2024/02/23 09:07:19;;;;;;;18.92;13.23;;;;;;;11.34;100.00;100395.44;4992345;28;20417;-69
2024/02/23 09:09:45;;;;;;;18.85;14.18;;;;;;;11.73;100.00;100456.13;4991356;28;20052;-69
2024/02/23 09:12:12;;;;;;;19.15;14.75;;;;;;;11.81;100.00;100442.59;4991662;28;20510;-69
2024/02/23 09:14:38;;;;;;;18.27;13.30;;;;;;;11.91;100.00;100432.53;4991239;28;20034;-75
2024/02/23 09:17:04;;;;;;;20.33;14.80;;;;;;;12.05;100.00;100449.41;4958107;28;20566;-69
2024/02/23 09:19:30;;;;;;;20.23;15.88;;;;;;;12.16;100.00;100443.66;4991663;28;20176;-69
2024/02/23 09:21:55;;;;;;;19.30;15.27;;;;;;;12.23;100.00;100449.06;4990898;28;20030;-68
2024/02/23 09:24:21;;;;;;;20.73;15.30;;;;;;;11.61;100.00;100327.31;4990913;28;20058;-69
2024/02/23 09:26:47;;;;;;;21.48;14.85;;;;;;;12.25;100.00;100405.09;4991157;28;20023;-68
2024/02/23 09:29:13;;;;;;;20.90;14.32;;;;;;;12.07;97.99;100364.06;4990721;28;20026;-68
2024/02/23 09:31:38;;;;;;;19.55;13.45;;;;;;;12.58;97.07;100435.41;4991066;28;20030;-69
2024/02/23 09:34:04;;;;;;;21.08;14.40;;;;;;;12.74;97.44;100440.16;4991017;28;20029;-74
2024/02/23 09:36:30;;;;;;;19.10;14.18;;;;;;;12.89;98.38;100436.25;4990749;28;20092;-71
2024/02/23 09:38:56;;;;;;;19.95;14.80;;;;;;;13.03;98.93;100426.25;4991551;28;20037;-69
2024/02/23 09:41:23;;;;;;;17.52;14.02;;;;;;;13.16;97.19;100419.66;4979041;28;20068;-69
2024/02/23 09:43:49;;;;;;;20.13;14.25;;;;;;;13.31;94.95;100422.66;4990756;28;20019;-68
2024/02/23 09:46:16;;;;;;;17.02;13.70;;;;;;;13.52;96.11;100408.47;4990596;28;20076;-69
2024/02/23 09:48:43;;;;;;;18.05;13.90;;;;;;;13.27;94.10;100358.56;4990724;28;20034;-68
2024/02/23 09:51:11;;;;;;;15.50;12.40;;;;;;;13.75;93.20;100407.28;4982048;28;20482;-68
2024/02/23 09:53:38;;;;;;;19.73;14.30;;;;;;;13.89;93.05;100401.53;4990528;28;20041;-69
2024/02/23 09:56:05;;;;;;;18.58;12.75;;;;;;;13.91;92.35;100398.13;4991301;28;20125;-69
2024/02/23 09:58:32;;;;;;;19.00;12.20;;;;;;;13.96;92.71;100397.38;4990257;28;20026;-69
2024/02/23 10:00:59;;;;;;;16.83;12.32;;;;;;;13.93;91.37;100395.56;4989907;28;20153;-68
2024/02/23 10:03:28;;;;;;;16.73;13.23;;;;;;;14.01;93.09;100394.03;4990384;28;20528;-68
2024/02/23 10:05:54;;;;;;;18.58;13.35;;;;;;;14.17;91.74;100395.22;4990208;28;20038;-69
2024/02/23 10:08:20;;;;;;;16.48;12.68;;;;;;;14.27;92.58;100388.50;4990506;28;20453;-68
2024/02/23 10:10:47;;;;;;;16.50;12.43;;;;;;;14.20;91.60;100364.13;4990692;28;20026;-69
2024/02/23 10:13:12;;;;;;;16.30;12.18;;;;;;;14.42;91.83;100381.84;4990563;28;20037;-69
2024/02/23 10:15:38;;;;;;;47.85;29.65;;;;;;;14.50;91.16;100364.72;4990520;28;20038;-69
2024/02/23 10:18:04;;;;;;;19.02;13.32;;;;;;;14.76;90.97;100369.56;4990643;28;20462;-68
2024/02/23 10:20:31;;;;;;;29.08;17.60;;;;;;;14.59;89.88;100307.72;4990461;28;20062;-69
2024/02/23 10:22:56;;;;;;;22.95;16.02;;;;;;;14.79;87.74;100317.63;4991196;28;20026;-70
2024/02/23 10:25:23;;;;;;;18.40;13.32;;;;;;;15.15;90.26;100345.09;4990578;28;20103;-69
2024/02/23 10:27:49;;;;;;;19.58;12.98;;;;;;;15.13;88.47;100334.69;4990269;28;20038;-68
2024/02/23 10:30:17;;;;;;;16.27;12.82;;;;;;;15.29;89.94;100320.19;4990094;28;20501;-68
2024/02/23 10:32:43;;;;;;;13.43;10.18;;;;;;;15.68;85.87;100355.44;4990059;28;20494;-69
2024/02/23 10:35:16;;;;;;;12.77;10.77;;;;;;;15.88;84.82;100352.28;4990525;28;20073;-70
2024/02/23 10:37:50;;;;;;;21.15;13.80;;;;;;;16.12;84.53;100350.84;4982472;28;20038;-69
2024/02/23 10:40:16;;;;;;;14.45;11.15;;;;;;;16.22;83.74;100342.25;4991639;28;20031;-67
2024/02/23 10:42:51;;;;;;;14.73;10.85;;;;;;;16.29;84.79;100344.09;4994726;28;20034;-69
2024/02/23 10:45:21;;;;;;;12.27;10.55;;;;;;;16.44;84.69;100335.56;4994115;28;20022;-68
2024/02/23 10:47:48;;;;;;;12.90;10.07;;;;;;;16.16;82.75;100262.34;4992543;28;20092;-68
2024/02/23 10:50:15;;;;;;;13.20;10.35;;;;;;;16.61;80.57;100325.34;4982657;28;20421;-68
2024/02/23 10:52:44;;;;;;;14.18;10.32;;;;;;;16.69;80.60;100324.53;4993798;28;20042;-69
2024/02/23 10:55:11;;;;;;;12.63;10.07;;;;;;;16.86;80.43;100325.56;4994513;28;20054;-67
2024/02/23 10:57:38;;;;;;;12.45;9.50;;;;;;;17.05;80.43;100307.50;4989958;28;20634;-70
2024/02/23 11:00:09;;;;;;;14.07;9.95;;;;;;;16.78;82.24;100312.44;4993761;28;20034;-68
2024/02/23 11:02:40;;;;;;;13.07;10.50;;;;;;;16.86;81.90;100303.81;4993924;28;20113;-69
2024/02/23 11:05:09;;;;;;;12.50;9.57;;;;;;;17.00;80.21;100303.94;4993997;28;20035;-74